This is the latest recevied weather packets stored in our database for station/object W4OCD. If no packets are shown the sender has not sent any weather packets the latest 10 day(s).
| Time | Temp. | Humidity | Pressure | Rain* | Wind** | Luminosity | Snow |
|---|---|---|---|---|---|---|---|
| 1777867007 | 10.56° C | 86% | 1018.8 hPa | 0 mm | - | 0 W/m² | - |
| 1777866704 | 10.56° C | 86% | 1019.2 hPa | 0 mm | - | 0 W/m² | - |
| 1777865796 | 10.56° C | 85% | 1019.2 hPa | 0 mm | - | 0 W/m² | - |
| 1777865190 | 11.11° C | 85% | 1018.8 hPa | 0 mm | - | 0 W/m² | - |
| 1777863068 | 11.67° C | 79% | 1018.6 hPa | 0 mm | - | 0 W/m² | - |
| 1777846701 | 23.33° C | 38% | 1017.6 hPa | 0 mm | - | 288 W/m² | - |
| 1777846095 | 22.22° C | 42% | 1017.7 hPa | 0 mm | - | 303 W/m² | - |
| 1777845489 | 23.33° C | 36% | 1017.6 hPa | 0 mm | - | 355 W/m² | - |
| 1777844278 | 23.33° C | 38% | 1018.1 hPa | 0 mm | - | 414 W/m² | - |
| 1777843672 | 23.33° C | 38% | 1018 hPa | 0 mm | - | 442 W/m² | - |
| 1777843370 | 22.78° C | 41% | 1018.1 hPa | 0 mm | - | 409 W/m² | - |
| 1777843067 | 22.78° C | 40% | 1018 hPa | 0 mm | - | 461 W/m² | - |
| 1777842763 | 23.89° C | 37% | 1018 hPa | 0 mm | - | 443 W/m² | - |
| 1777842458 | 23.33° C | 42% | 1018.3 hPa | 0 mm | - | 428 W/m² | - |
| 1777842157 | 22.78° C | 40% | 1018.2 hPa | 0 mm | - | 497 W/m² | - |
| 1777841851 | 22.78° C | 36% | 1018.2 hPa | 0 mm | - | 510 W/m² | - |
| 1777841548 | 23.33° C | 36% | 1018.4 hPa | 0 mm | - | 522 W/m² | - |
| 1777840943 | 23.89° C | 38% | 1018.3 hPa | 0 mm | - | 537 W/m² | - |
| 1777840639 | 23.89° C | 37% | 1018.3 hPa | 0 mm | - | 542 W/m² | - |
| 1777840337 | 22.78° C | 37% | 1018.6 hPa | 0 mm | - | 397 W/m² | - |
| 1777840034 | 23.33° C | 35% | 1018.7 hPa | 0 mm | - | 439 W/m² | - |
| 1777839732 | 23.33° C | 36% | 1018.7 hPa | 0 mm | - | 528 W/m² | - |
| 1777839127 | 22.78° C | 36% | 1019.2 hPa | 0 mm | - | 585 W/m² | - |
| 1777838823 | 22.22° C | 39% | 1018.8 hPa | 0 mm | - | 605 W/m² | - |
| 1777837003 | 22.78° C | 38% | 1019.6 hPa | 0 mm | - | 630 W/m² | - |
* Rain latest hour (hover to see other rain measurements)
** Current wind speed in m/s (hover to see current wind gust speed)